sensor_id;sensor_type;location;lat;lon;timestamp;temperature;humidity
3298;DHT22;1661;53.572;10.174;2022-12-18T00:00:00;-3.30;83.60
3298;DHT22;1661;53.572;10.174;2022-12-18T00:02:27;-3.40;83.50
3298;DHT22;1661;53.572;10.174;2022-12-18T00:04:59;-3.30;83.60
3298;DHT22;1661;53.572;10.174;2022-12-18T00:07:26;-3.30;83.50
3298;DHT22;1661;53.572;10.174;2022-12-18T00:09:53;-3.20;83.30
3298;DHT22;1661;53.572;10.174;2022-12-18T00:12:20;-3.20;83.10
3298;DHT22;1661;53.572;10.174;2022-12-18T00:14:50;-3.10;82.80
3298;DHT22;1661;53.572;10.174;2022-12-18T00:17:17;-3.10;82.60
3298;DHT22;1661;53.572;10.174;2022-12-18T00:19:47;-3.10;82.20
3298;DHT22;1661;53.572;10.174;2022-12-18T00:22:13;-3.10;82.10
3298;DHT22;1661;53.572;10.174;2022-12-18T00:24:40;-3.20;82.00
3298;DHT22;1661;53.572;10.174;2022-12-18T00:27:10;-3.20;82.10
3298;DHT22;1661;53.572;10.174;2022-12-18T00:29:39;-3.30;82.10
3298;DHT22;1661;53.572;10.174;2022-12-18T00:32:07;-3.30;82.20
3298;DHT22;1661;53.572;10.174;2022-12-18T00:34:34;-3.30;82.10
3298;DHT22;1661;53.572;10.174;2022-12-18T00:37:01;-3.30;82.30
3298;DHT22;1661;53.572;10.174;2022-12-18T00:39:30;-3.30;82.30
3298;DHT22;1661;53.572;10.174;2022-12-18T00:41:57;-3.30;82.20
3298;DHT22;1661;53.572;10.174;2022-12-18T00:44:41;-3.30;82.10
3298;DHT22;1661;53.572;10.174;2022-12-18T00:47:09;-3.40;82.30
3298;DHT22;1661;53.572;10.174;2022-12-18T00:49:36;-3.30;82.30
3298;DHT22;1661;53.572;10.174;2022-12-18T00:52:05;-3.30;82.10
3298;DHT22;1661;53.572;10.174;2022-12-18T00:54:31;-3.30;81.80
3298;DHT22;1661;53.572;10.174;2022-12-18T00:56:58;-3.30;81.70
3298;DHT22;1661;53.572;10.174;2022-12-18T00:59:25;-3.30;81.80
3298;DHT22;1661;53.572;10.174;2022-12-18T01:01:55;-3.30;81.70
3298;DHT22;1661;53.572;10.174;2022-12-18T01:04:26;-3.40;81.70
3298;DHT22;1661;53.572;10.174;2022-12-18T01:06:52;-3.50;81.90
3298;DHT22;1661;53.572;10.174;2022-12-18T01:09:19;-3.50;82.10
3298;DHT22;1661;53.572;10.174;2022-12-18T01:11:46;-3.60;82.20
3298;DHT22;1661;53.572;10.174;2022-12-18T01:14:13;-3.60;82.50
3298;DHT22;1661;53.572;10.174;2022-12-18T01:16:40;-3.70;82.60
3298;DHT22;1661;53.572;10.174;2022-12-18T01:19:07;-3.80;82.80
3298;DHT22;1661;53.572;10.174;2022-12-18T01:21:35;-3.80;83.00
3298;DHT22;1661;53.572;10.174;2022-12-18T01:24:02;-3.80;83.20
3298;DHT22;1661;53.572;10.174;2022-12-18T01:26:29;-3.80;83.30
3298;DHT22;1661;53.572;10.174;2022-12-18T01:28:56;-3.90;83.50
3298;DHT22;1661;53.572;10.174;2022-12-18T01:31:25;-3.90;83.60
3298;DHT22;1661;53.572;10.174;2022-12-18T01:33:53;-3.90;83.70
3298;DHT22;1661;53.572;10.174;2022-12-18T01:36:21;-4.00;83.80
3298;DHT22;1661;53.572;10.174;2022-12-18T01:38:51;-3.90;83.70
3298;DHT22;1661;53.572;10.174;2022-12-18T01:41:20;-3.80;83.50
3298;DHT22;1661;53.572;10.174;2022-12-18T01:43:50;-3.80;83.20
3298;DHT22;1661;53.572;10.174;2022-12-18T01:46:19;-3.70;83.00
3298;DHT22;1661;53.572;10.174;2022-12-18T01:48:48;-3.70;82.70
3298;DHT22;1661;53.572;10.174;2022-12-18T01:51:17;-3.70;82.60
3298;DHT22;1661;53.572;10.174;2022-12-18T01:53:45;-3.70;82.40
3298;DHT22;1661;53.572;10.174;2022-12-18T01:56:18;-3.60;82.20
3298;DHT22;1661;53.572;10.174;2022-12-18T01:58:53;-3.70;82.00
3298;DHT22;1661;53.572;10.174;2022-12-18T02:01:29;-3.70;81.90
3298;DHT22;1661;53.572;10.174;2022-12-18T02:04:19;-3.70;82.10
3298;DHT22;1661;53.572;10.174;2022-12-18T02:06:47;-3.70;82.20
3298;DHT22;1661;53.572;10.174;2022-12-18T02:09:20;-3.70;82.00
3298;DHT22;1661;53.572;10.174;2022-12-18T02:11:57;-3.70;81.90
3298;DHT22;1661;53.572;10.174;2022-12-18T02:14:32;-3.60;81.90
3298;DHT22;1661;53.572;10.174;2022-12-18T02:17:09;-3.60;81.50
3298;DHT22;1661;53.572;10.174;2022-12-18T02:19:47;-3.60;81.30
3298;DHT22;1661;53.572;10.174;2022-12-18T02:22:29;-3.70;81.30
3298;DHT22;1661;53.572;10.174;2022-12-18T02:25:12;-3.70;81.20
3298;DHT22;1661;53.572;10.174;2022-12-18T02:27:42;-3.80;81.30
3298;DHT22;1661;53.572;10.174;2022-12-18T02:30:10;-3.80;81.30
3298;DHT22;1661;53.572;10.174;2022-12-18T02:32:40;-3.80;81.50
3298;DHT22;1661;53.572;10.174;2022-12-18T02:35:16;-3.90;81.70
3298;DHT22;1661;53.572;10.174;2022-12-18T02:37:47;-3.80;81.60
3298;DHT22;1661;53.572;10.174;2022-12-18T02:40:15;-3.80;81.60
3298;DHT22;1661;53.572;10.174;2022-12-18T02:42:44;-3.80;81.60
3298;DHT22;1661;53.572;10.174;2022-12-18T02:45:11;-3.70;81.40
3298;DHT22;1661;53.572;10.174;2022-12-18T02:47:42;-3.80;81.40
3298;DHT22;1661;53.572;10.174;2022-12-18T02:50:16;-3.80;81.40
3298;DHT22;1661;53.572;10.174;2022-12-18T02:52:52;-3.70;81.40
3298;DHT22;1661;53.572;10.174;2022-12-18T02:55:35;-3.60;81.10
3298;DHT22;1661;53.572;10.174;2022-12-18T02:58:14;-3.60;80.90
3298;DHT22;1661;53.572;10.174;2022-12-18T03:00:47;-3.50;80.70
3298;DHT22;1661;53.572;10.174;2022-12-18T03:03:19;-3.50;80.60
3298;DHT22;1661;53.572;10.174;2022-12-18T03:05:52;-3.50;80.20
3298;DHT22;1661;53.572;10.174;2022-12-18T03:08:22;-3.50;80.10
3298;DHT22;1661;53.572;10.174;2022-12-18T03:10:56;-3.40;80.00
3298;DHT22;1661;53.572;10.174;2022-12-18T03:13:31;-3.40;80.00
3298;DHT22;1661;53.572;10.174;2022-12-18T03:16:00;-3.40;79.90
3298;DHT22;1661;53.572;10.174;2022-12-18T03:18:30;-3.40;79.60
3298;DHT22;1661;53.572;10.174;2022-12-18T03:21:06;-3.40;79.50
3298;DHT22;1661;53.572;10.174;2022-12-18T03:23:36;-3.40;79.40
3298;DHT22;1661;53.572;10.174;2022-12-18T03:26:10;-3.50;79.30
3298;DHT22;1661;53.572;10.174;2022-12-18T03:28:45;-3.70;79.30
3298;DHT22;1661;53.572;10.174;2022-12-18T03:31:14;-3.80;79.80
3298;DHT22;1661;53.572;10.174;2022-12-18T03:33:45;-3.90;80.00
3298;DHT22;1661;53.572;10.174;2022-12-18T03:36:12;-3.90;80.40
3298;DHT22;1661;53.572;10.174;2022-12-18T03:38:40;-4.00;80.70
3298;DHT22;1661;53.572;10.174;2022-12-18T03:41:15;-4.00;80.80
3298;DHT22;1661;53.572;10.174;2022-12-18T03:43:49;-4.00;80.80
3298;DHT22;1661;53.572;10.174;2022-12-18T03:46:25;-4.10;81.10
3298;DHT22;1661;53.572;10.174;2022-12-18T03:48:58;-4.10;81.30
3298;DHT22;1661;53.572;10.174;2022-12-18T03:51:32;-4.10;81.30
3298;DHT22;1661;53.572;10.174;2022-12-18T03:54:04;-4.10;81.40
3298;DHT22;1661;53.572;10.174;2022-12-18T03:56:35;-4.20;81.50
3298;DHT22;1661;53.572;10.174;2022-12-18T03:59:05;-4.10;81.70
3298;DHT22;1661;53.572;10.174;2022-12-18T04:01:38;-4.10;81.70
3298;DHT22;1661;53.572;10.174;2022-12-18T04:04:05;-4.00;81.50
3298;DHT22;1661;53.572;10.174;2022-12-18T04:06:36;-4.00;81.40
3298;DHT22;1661;53.572;10.174;2022-12-18T04:09:04;-4.10;81.30
3298;DHT22;1661;53.572;10.174;2022-12-18T04:11:31;-4.10;81.40
3298;DHT22;1661;53.572;10.174;2022-12-18T04:13:58;-4.10;81.30
3298;DHT22;1661;53.572;10.174;2022-12-18T04:16:29;-4.10;81.30
3298;DHT22;1661;53.572;10.174;2022-12-18T04:18:56;-4.10;81.30
3298;DHT22;1661;53.572;10.174;2022-12-18T04:21:23;-4.10;81.20
3298;DHT22;1661;53.572;10.174;2022-12-18T04:23:49;-4.20;81.30
3298;DHT22;1661;53.572;10.174;2022-12-18T04:26:16;-4.20;81.50
3298;DHT22;1661;53.572;10.174;2022-12-18T04:28:43;-4.20;81.60
3298;DHT22;1661;53.572;10.174;2022-12-18T04:31:13;-4.20;81.60
3298;DHT22;1661;53.572;10.174;2022-12-18T04:33:41;-4.30;81.80
3298;DHT22;1661;53.572;10.174;2022-12-18T04:36:08;-4.20;81.70
3298;DHT22;1661;53.572;10.174;2022-12-18T04:38:38;-4.10;81.60
3298;DHT22;1661;53.572;10.174;2022-12-18T04:41:04;-4.00;81.40
3298;DHT22;1661;53.572;10.174;2022-12-18T04:43:34;-4.00;81.10
3298;DHT22;1661;53.572;10.174;2022-12-18T04:46:02;-4.00;80.90
3298;DHT22;1661;53.572;10.174;2022-12-18T04:48:29;-4.00;80.90
3298;DHT22;1661;53.572;10.174;2022-12-18T04:50:57;-4.00;80.70
3298;DHT22;1661;53.572;10.174;2022-12-18T04:53:24;-4.10;80.70
3298;DHT22;1661;53.572;10.174;2022-12-18T04:55:51;-4.10;80.70
3298;DHT22;1661;53.572;10.174;2022-12-18T04:58:28;-4.20;80.90
3298;DHT22;1661;53.572;10.174;2022-12-18T05:00:54;-4.20;81.00
3298;DHT22;1661;53.572;10.174;2022-12-18T05:03:21;-4.20;81.10
3298;DHT22;1661;53.572;10.174;2022-12-18T05:05:49;-4.20;81.10
3298;DHT22;1661;53.572;10.174;2022-12-18T05:08:17;-4.20;81.00
3298;DHT22;1661;53.572;10.174;2022-12-18T05:10:44;-4.20;81.00
3298;DHT22;1661;53.572;10.174;2022-12-18T05:13:12;-4.20;81.10
3298;DHT22;1661;53.572;10.174;2022-12-18T05:15:39;-4.20;81.10
3298;DHT22;1661;53.572;10.174;2022-12-18T05:18:07;-4.20;81.20
3298;DHT22;1661;53.572;10.174;2022-12-18T05:20:34;-4.20;81.20
3298;DHT22;1661;53.572;10.174;2022-12-18T05:23:01;-4.20;81.20
3298;DHT22;1661;53.572;10.174;2022-12-18T05:25:29;-4.30;81.30
3298;DHT22;1661;53.572;10.174;2022-12-18T05:27:55;-4.30;81.30
3298;DHT22;1661;53.572;10.174;2022-12-18T05:30:22;-4.40;81.30
3298;DHT22;1661;53.572;10.174;2022-12-18T05:32:49;-4.40;81.50
3298;DHT22;1661;53.572;10.174;2022-12-18T05:35:16;-4.50;81.90
3298;DHT22;1661;53.572;10.174;2022-12-18T05:37:43;-4.50;81.90
3298;DHT22;1661;53.572;10.174;2022-12-18T05:40:11;-4.50;81.90
3298;DHT22;1661;53.572;10.174;2022-12-18T05:42:39;-4.50;81.90
3298;DHT22;1661;53.572;10.174;2022-12-18T05:45:07;-4.50;81.80
3298;DHT22;1661;53.572;10.174;2022-12-18T05:47:33;-4.50;81.70
3298;DHT22;1661;53.572;10.174;2022-12-18T05:50:00;-4.50;81.80
3298;DHT22;1661;53.572;10.174;2022-12-18T05:52:27;-4.40;81.70
3298;DHT22;1661;53.572;10.174;2022-12-18T05:54:54;-4.40;81.50
3298;DHT22;1661;53.572;10.174;2022-12-18T05:57:21;-4.40;81.50
3298;DHT22;1661;53.572;10.174;2022-12-18T05:59:49;-4.40;81.50
3298;DHT22;1661;53.572;10.174;2022-12-18T06:02:15;-4.40;81.40
3298;DHT22;1661;53.572;10.174;2022-12-18T06:04:42;-4.30;81.30
3298;DHT22;1661;53.572;10.174;2022-12-18T06:07:09;-4.20;81.20
3298;DHT22;1661;53.572;10.174;2022-12-18T06:09:36;-4.20;81.00
3298;DHT22;1661;53.572;10.174;2022-12-18T06:12:03;-4.20;80.80
3298;DHT22;1661;53.572;10.174;2022-12-18T06:14:30;-4.20;80.60
3298;DHT22;1661;53.572;10.174;2022-12-18T06:16:58;-4.20;80.50
3298;DHT22;1661;53.572;10.174;2022-12-18T06:19:25;-4.30;80.60
3298;DHT22;1661;53.572;10.174;2022-12-18T06:21:52;-4.30;80.50
3298;DHT22;1661;53.572;10.174;2022-12-18T06:24:18;-4.30;80.60
3298;DHT22;1661;53.572;10.174;2022-12-18T06:26:45;-4.40;80.70
3298;DHT22;1661;53.572;10.174;2022-12-18T06:29:12;-4.40;80.80
3298;DHT22;1661;53.572;10.174;2022-12-18T06:31:39;-4.40;81.00
3298;DHT22;1661;53.572;10.174;2022-12-18T06:34:07;-4.40;81.00
3298;DHT22;1661;53.572;10.174;2022-12-18T06:36:34;-4.30;80.90
3298;DHT22;1661;53.572;10.174;2022-12-18T06:39:01;-4.40;80.70
3298;DHT22;1661;53.572;10.174;2022-12-18T06:41:28;-4.40;80.80
3298;DHT22;1661;53.572;10.174;2022-12-18T06:43:54;-4.40;80.80
3298;DHT22;1661;53.572;10.174;2022-12-18T06:46:21;-4.50;80.90
3298;DHT22;1661;53.572;10.174;2022-12-18T06:48:48;-4.50;81.10
3298;DHT22;1661;53.572;10.174;2022-12-18T06:51:19;-4.60;81.20
3298;DHT22;1661;53.572;10.174;2022-12-18T06:53:46;-4.60;81.40
3298;DHT22;1661;53.572;10.174;2022-12-18T06:56:13;-4.70;81.60
3298;DHT22;1661;53.572;10.174;2022-12-18T06:58:40;-4.70;81.80
3298;DHT22;1661;53.572;10.174;2022-12-18T07:01:09;-4.70;81.80
3298;DHT22;1661;53.572;10.174;2022-12-18T07:03:37;-4.70;81.90
3298;DHT22;1661;53.572;10.174;2022-12-18T07:06:04;-4.70;82.00
3298;DHT22;1661;53.572;10.174;2022-12-18T07:08:33;-4.80;82.20
3298;DHT22;1661;53.572;10.174;2022-12-18T07:11:03;-4.80;82.50
3298;DHT22;1661;53.572;10.174;2022-12-18T07:13:31;-4.80;82.50
3298;DHT22;1661;53.572;10.174;2022-12-18T07:16:04;-4.80;82.60
3298;DHT22;1661;53.572;10.174;2022-12-18T07:18:31;-4.90;82.40
3298;DHT22;1661;53.572;10.174;2022-12-18T07:20:58;-4.90;82.70
3298;DHT22;1661;53.572;10.174;2022-12-18T07:23:28;-4.90;82.90
3298;DHT22;1661;53.572;10.174;2022-12-18T07:26:00;-4.80;82.80
3298;DHT22;1661;53.572;10.174;2022-12-18T07:28:27;-4.70;82.60
3298;DHT22;1661;53.572;10.174;2022-12-18T07:30:54;-4.60;82.20
3298;DHT22;1661;53.572;10.174;2022-12-18T07:33:23;-4.60;81.90
3298;DHT22;1661;53.572;10.174;2022-12-18T07:35:50;-4.70;81.90
3298;DHT22;1661;53.572;10.174;2022-12-18T07:38:17;-4.70;82.00
3298;DHT22;1661;53.572;10.174;2022-12-18T07:40:43;-4.70;82.00
3298;DHT22;1661;53.572;10.174;2022-12-18T07:43:12;-4.70;82.20
3298;DHT22;1661;53.572;10.174;2022-12-18T07:45:38;-4.70;82.20
3298;DHT22;1661;53.572;10.174;2022-12-18T07:48:05;-4.70;82.00
3298;DHT22;1661;53.572;10.174;2022-12-18T07:50:32;-4.60;81.90
3298;DHT22;1661;53.572;10.174;2022-12-18T07:53:02;-4.70;81.80
3298;DHT22;1661;53.572;10.174;2022-12-18T07:55:30;-4.70;81.80
3298;DHT22;1661;53.572;10.174;2022-12-18T07:58:00;-4.70;81.80
3298;DHT22;1661;53.572;10.174;2022-12-18T08:00:28;-4.60;81.70
3298;DHT22;1661;53.572;10.174;2022-12-18T08:03:01;-4.60;81.60
3298;DHT22;1661;53.572;10.174;2022-12-18T08:05:28;-4.50;81.60
3298;DHT22;1661;53.572;10.174;2022-12-18T08:07:55;-4.60;81.40
3298;DHT22;1661;53.572;10.174;2022-12-18T08:10:21;-4.50;81.60
3298;DHT22;1661;53.572;10.174;2022-12-18T08:12:49;-4.50;81.60
3298;DHT22;1661;53.572;10.174;2022-12-18T08:15:16;-4.60;81.60
3298;DHT22;1661;53.572;10.174;2022-12-18T08:17:46;-4.60;81.70
3298;DHT22;1661;53.572;10.174;2022-12-18T08:20:13;-4.50;81.60
3298;DHT22;1661;53.572;10.174;2022-12-18T08:22:40;-4.50;81.60
3298;DHT22;1661;53.572;10.174;2022-12-18T08:25:08;-4.50;81.80
3298;DHT22;1661;53.572;10.174;2022-12-18T08:27:37;-4.40;81.80
3298;DHT22;1661;53.572;10.174;2022-12-18T08:30:05;-4.30;81.50
3298;DHT22;1661;53.572;10.174;2022-12-18T08:32:32;-4.20;81.40
3298;DHT22;1661;53.572;10.174;2022-12-18T08:35:00;-4.20;81.10
3298;DHT22;1661;53.572;10.174;2022-12-18T08:37:27;-4.10;81.10
3298;DHT22;1661;53.572;10.174;2022-12-18T08:39:54;-4.00;80.80
3298;DHT22;1661;53.572;10.174;2022-12-18T08:42:21;-3.90;80.30
3298;DHT22;1661;53.572;10.174;2022-12-18T08:45:06;-3.80;80.10
3298;DHT22;1661;53.572;10.174;2022-12-18T08:47:33;-3.70;79.90
3298;DHT22;1661;53.572;10.174;2022-12-18T08:50:01;-3.60;79.20
3298;DHT22;1661;53.572;10.174;2022-12-18T08:52:32;-3.60;79.00
3298;DHT22;1661;53.572;10.174;2022-12-18T08:54:58;-3.60;79.20
3298;DHT22;1661;53.572;10.174;2022-12-18T08:57:25;-3.50;79.10
3298;DHT22;1661;53.572;10.174;2022-12-18T08:59:52;-3.40;78.40
3298;DHT22;1661;53.572;10.174;2022-12-18T09:02:19;-3.40;78.20
3298;DHT22;1661;53.572;10.174;2022-12-18T09:04:46;-3.40;78.00
3298;DHT22;1661;53.572;10.174;2022-12-18T09:07:15;-3.30;77.80
3298;DHT22;1661;53.572;10.174;2022-12-18T09:09:41;-3.30;77.70
3298;DHT22;1661;53.572;10.174;2022-12-18T09:12:08;-3.20;77.90
3298;DHT22;1661;53.572;10.174;2022-12-18T09:14:35;-3.20;77.60
3298;DHT22;1661;53.572;10.174;2022-12-18T09:17:02;-3.20;77.50
3298;DHT22;1661;53.572;10.174;2022-12-18T09:19:29;-3.20;77.40
3298;DHT22;1661;53.572;10.174;2022-12-18T09:21:56;-3.00;77.20
3298;DHT22;1661;53.572;10.174;2022-12-18T09:24:24;-3.00;77.20
3298;DHT22;1661;53.572;10.174;2022-12-18T09:26:53;-2.90;77.00
3298;DHT22;1661;53.572;10.174;2022-12-18T09:29:20;-2.90;76.70
3298;DHT22;1661;53.572;10.174;2022-12-18T09:31:46;-2.70;76.50
3298;DHT22;1661;53.572;10.174;2022-12-18T09:34:16;-2.50;76.30
3298;DHT22;1661;53.572;10.174;2022-12-18T09:36:43;-2.50;75.50
3298;DHT22;1661;53.572;10.174;2022-12-18T09:39:09;-2.50;75.20
3298;DHT22;1661;53.572;10.174;2022-12-18T09:41:43;-2.50;74.90
3298;DHT22;1661;53.572;10.174;2022-12-18T09:44:17;-2.50;75.30
3298;DHT22;1661;53.572;10.174;2022-12-18T09:46:52;-2.40;75.00
3298;DHT22;1661;53.572;10.174;2022-12-18T09:49:23;-2.40;74.80
3298;DHT22;1661;53.572;10.174;2022-12-18T09:51:53;-2.30;74.70
3298;DHT22;1661;53.572;10.174;2022-12-18T09:54:24;-2.30;74.50
3298;DHT22;1661;53.572;10.174;2022-12-18T09:56:53;-2.30;74.00
3298;DHT22;1661;53.572;10.174;2022-12-18T09:59:25;-2.20;74.30
3298;DHT22;1661;53.572;10.174;2022-12-18T10:01:53;-2.10;73.80
3298;DHT22;1661;53.572;10.174;2022-12-18T10:04:23;-2.00;73.70
3298;DHT22;1661;53.572;10.174;2022-12-18T10:06:54;-1.90;73.50
3298;DHT22;1661;53.572;10.174;2022-12-18T10:09:30;-1.70;73.10
3298;DHT22;1661;53.572;10.174;2022-12-18T10:12:08;-1.60;72.50
3298;DHT22;1661;53.572;10.174;2022-12-18T10:14:45;-1.50;71.80
3298;DHT22;1661;53.572;10.174;2022-12-18T10:17:20;-1.60;71.60
3298;DHT22;1661;53.572;10.174;2022-12-18T10:19:54;-1.60;72.00
3298;DHT22;1661;53.572;10.174;2022-12-18T10:22:37;-1.50;71.70
3298;DHT22;1661;53.572;10.174;2022-12-18T10:25:18;-1.40;71.90
3298;DHT22;1661;53.572;10.174;2022-12-18T10:27:48;-1.20;72.10
3298;DHT22;1661;53.572;10.174;2022-12-18T10:30:20;-1.30;71.00
3298;DHT22;1661;53.572;10.174;2022-12-18T10:32:47;-1.30;70.80
3298;DHT22;1661;53.572;10.174;2022-12-18T10:35:18;-1.20;70.60
3298;DHT22;1661;53.572;10.174;2022-12-18T10:38:07;-1.20;70.30
3298;DHT22;1661;53.572;10.174;2022-12-18T10:40:51;-1.30;70.30
3298;DHT22;1661;53.572;10.174;2022-12-18T10:43:25;-1.30;70.70
3298;DHT22;1661;53.572;10.174;2022-12-18T10:46:11;-1.20;70.50
3298;DHT22;1661;53.572;10.174;2022-12-18T10:48:48;-1.20;70.20
3298;DHT22;1661;53.572;10.174;2022-12-18T10:51:26;-1.20;70.10
3298;DHT22;1661;53.572;10.174;2022-12-18T10:53:56;-1.10;70.30
3298;DHT22;1661;53.572;10.174;2022-12-18T10:56:25;-1.00;70.20
3298;DHT22;1661;53.572;10.174;2022-12-18T10:58:59;-1.00;69.90
3298;DHT22;1661;53.572;10.174;2022-12-18T11:01:27;-0.90;70.00
3298;DHT22;1661;53.572;10.174;2022-12-18T11:04:07;-0.90;69.80
3298;DHT22;1661;53.572;10.174;2022-12-18T11:06:56;-0.90;70.20
3298;DHT22;1661;53.572;10.174;2022-12-18T11:09:25;-0.90;70.50
3298;DHT22;1661;53.572;10.174;2022-12-18T11:11:53;-0.90;70.40
3298;DHT22;1661;53.572;10.174;2022-12-18T11:14:28;-0.80;70.20
3298;DHT22;1661;53.572;10.174;2022-12-18T11:16:56;-0.70;69.60
3298;DHT22;1661;53.572;10.174;2022-12-18T11:19:32;-0.70;69.70
3298;DHT22;1661;53.572;10.174;2022-12-18T11:22:01;-0.70;69.90
3298;DHT22;1661;53.572;10.174;2022-12-18T11:24:33;-0.70;69.60
3298;DHT22;1661;53.572;10.174;2022-12-18T11:27:02;-0.60;69.70
3298;DHT22;1661;53.572;10.174;2022-12-18T11:29:35;-0.50;69.70
3298;DHT22;1661;53.572;10.174;2022-12-18T11:32:26;-0.50;69.40
3298;DHT22;1661;53.572;10.174;2022-12-18T11:34:59;-0.50;69.50
3298;DHT22;1661;53.572;10.174;2022-12-18T11:37:28;-0.50;69.20
3298;DHT22;1661;53.572;10.174;2022-12-18T11:39:58;-0.50;69.30
3298;DHT22;1661;53.572;10.174;2022-12-18T11:42:30;-0.40;69.50
3298;DHT22;1661;53.572;10.174;2022-12-18T11:45:03;-0.50;69.00
3298;DHT22;1661;53.572;10.174;2022-12-18T11:47:39;-0.50;69.40
3298;DHT22;1661;53.572;10.174;2022-12-18T11:50:19;-0.60;69.50
3298;DHT22;1661;53.572;10.174;2022-12-18T11:52:48;-0.50;70.00
3298;DHT22;1661;53.572;10.174;2022-12-18T11:55:19;-0.40;69.70
3298;DHT22;1661;53.572;10.174;2022-12-18T11:57:55;-0.30;69.10
3298;DHT22;1661;53.572;10.174;2022-12-18T12:00:26;-0.30;69.10
3298;DHT22;1661;53.572;10.174;2022-12-18T12:03:21;-0.20;69.20
3298;DHT22;1661;53.572;10.174;2022-12-18T12:06:01;-0.10;69.10
3298;DHT22;1661;53.572;10.174;2022-12-18T12:08:35;-0.10;68.20
3298;DHT22;1661;53.572;10.174;2022-12-18T12:11:09;-0.10;68.60
3298;DHT22;1661;53.572;10.174;2022-12-18T12:13:46;-0.20;68.40
3298;DHT22;1661;53.572;10.174;2022-12-18T12:16:29;-0.10;68.40
3298;DHT22;1661;53.572;10.174;2022-12-18T12:19:08;-0.10;68.80
3298;DHT22;1661;53.572;10.174;2022-12-18T12:21:43;-0.10;68.20
3298;DHT22;1661;53.572;10.174;2022-12-18T12:24:26;0.00;68.20
3298;DHT22;1661;53.572;10.174;2022-12-18T12:27:03;-0.20;67.90
3298;DHT22;1661;53.572;10.174;2022-12-18T12:29:43;-0.30;68.50
3298;DHT22;1661;53.572;10.174;2022-12-18T12:32:25;-0.30;68.90
3298;DHT22;1661;53.572;10.174;2022-12-18T12:35:08;-0.20;68.70
3298;DHT22;1661;53.572;10.174;2022-12-18T12:37:44;-0.10;68.60
3298;DHT22;1661;53.572;10.174;2022-12-18T12:40:15;-0.10;68.70
3298;DHT22;1661;53.572;10.174;2022-12-18T12:42:49;-0.10;68.40
3298;DHT22;1661;53.572;10.174;2022-12-18T12:45:40;-0.10;68.30
3298;DHT22;1661;53.572;10.174;2022-12-18T12:48:24;-0.10;68.20
3298;DHT22;1661;53.572;10.174;2022-12-18T12:50:55;-0.20;68.30
3298;DHT22;1661;53.572;10.174;2022-12-18T12:53:27;-0.20;68.90
3298;DHT22;1661;53.572;10.174;2022-12-18T12:55:55;-0.10;69.70
3298;DHT22;1661;53.572;10.174;2022-12-18T12:58:31;-0.10;69.40
3298;DHT22;1661;53.572;10.174;2022-12-18T13:01:08;-0.10;69.50
3298;DHT22;1661;53.572;10.174;2022-12-18T13:03:44;-0.10;69.40
3298;DHT22;1661;53.572;10.174;2022-12-18T13:06:16;-0.10;68.90
3298;DHT22;1661;53.572;10.174;2022-12-18T13:08:55;-0.30;69.00
3298;DHT22;1661;53.572;10.174;2022-12-18T13:11:31;-0.40;69.50
3298;DHT22;1661;53.572;10.174;2022-12-18T13:14:24;-0.40;69.90
3298;DHT22;1661;53.572;10.174;2022-12-18T13:17:23;-0.40;70.10
3298;DHT22;1661;53.572;10.174;2022-12-18T13:20:04;-0.50;70.20
3298;DHT22;1661;53.572;10.174;2022-12-18T13:22:35;-0.50;70.50
3298;DHT22;1661;53.572;10.174;2022-12-18T13:25:03;-0.50;70.70
3298;DHT22;1661;53.572;10.174;2022-12-18T13:28:09;-0.50;70.50
3298;DHT22;1661;53.572;10.174;2022-12-18T13:30:57;-0.40;70.30
3298;DHT22;1661;53.572;10.174;2022-12-18T13:33:48;-0.30;70.20
3298;DHT22;1661;53.572;10.174;2022-12-18T13:36:33;-0.40;70.10
3298;DHT22;1661;53.572;10.174;2022-12-18T13:39:26;-0.50;70.20
3298;DHT22;1661;53.572;10.174;2022-12-18T13:42:31;-0.50;70.70
3298;DHT22;1661;53.572;10.174;2022-12-18T13:45:35;-0.70;71.10
3298;DHT22;1661;53.572;10.174;2022-12-18T13:48:03;-0.80;71.20
3298;DHT22;1661;53.572;10.174;2022-12-18T13:50:30;-0.80;71.50
3298;DHT22;1661;53.572;10.174;2022-12-18T13:53:06;-0.90;71.60
3298;DHT22;1661;53.572;10.174;2022-12-18T13:55:33;-1.00;72.30
3298;DHT22;1661;53.572;10.174;2022-12-18T13:58:03;-1.00;72.30
3298;DHT22;1661;53.572;10.174;2022-12-18T14:00:30;-1.10;72.40
3298;DHT22;1661;53.572;10.174;2022-12-18T14:02:58;-1.10;72.60
3298;DHT22;1661;53.572;10.174;2022-12-18T14:05:30;-1.00;72.70
3298;DHT22;1661;53.572;10.174;2022-12-18T14:08:03;-1.10;72.40
3298;DHT22;1661;53.572;10.174;2022-12-18T14:10:32;-1.20;73.00
3298;DHT22;1661;53.572;10.174;2022-12-18T14:13:05;-1.20;73.10
3298;DHT22;1661;53.572;10.174;2022-12-18T14:15:34;-1.30;73.60
3298;DHT22;1661;53.572;10.174;2022-12-18T14:18:03;-1.30;73.80
3298;DHT22;1661;53.572;10.174;2022-12-18T14:20:35;-1.40;74.10
3298;DHT22;1661;53.572;10.174;2022-12-18T14:23:03;-1.30;74.40
3298;DHT22;1661;53.572;10.174;2022-12-18T14:25:35;-1.30;74.40
3298;DHT22;1661;53.572;10.174;2022-12-18T14:28:07;-1.30;74.20
3298;DHT22;1661;53.572;10.174;2022-12-18T14:30:36;-1.40;74.50
3298;DHT22;1661;53.572;10.174;2022-12-18T14:33:05;-1.60;75.20
3298;DHT22;1661;53.572;10.174;2022-12-18T14:35:33;-1.70;75.80
3298;DHT22;1661;53.572;10.174;2022-12-18T14:38:22;-1.60;76.00
3298;DHT22;1661;53.572;10.174;2022-12-18T14:40:54;-1.60;76.20
3298;DHT22;1661;53.572;10.174;2022-12-18T14:43:21;-1.50;75.90
3298;DHT22;1661;53.572;10.174;2022-12-18T14:45:48;-1.60;75.80
3298;DHT22;1661;53.572;10.174;2022-12-18T14:48:18;-1.60;76.00
3298;DHT22;1661;53.572;10.174;2022-12-18T14:50:55;-1.60;76.20
3298;DHT22;1661;53.572;10.174;2022-12-18T14:53:32;-1.70;76.50
3298;DHT22;1661;53.572;10.174;2022-12-18T14:56:01;-1.60;76.60
3298;DHT22;1661;53.572;10.174;2022-12-18T14:58:31;-1.50;76.40
3298;DHT22;1661;53.572;10.174;2022-12-18T15:01:01;-1.40;76.10
3298;DHT22;1661;53.572;10.174;2022-12-18T15:03:28;-1.30;75.80
3298;DHT22;1661;53.572;10.174;2022-12-18T15:05:55;-1.30;75.60
3298;DHT22;1661;53.572;10.174;2022-12-18T15:08:29;-1.20;75.20
3298;DHT22;1661;53.572;10.174;2022-12-18T15:11:28;-1.20;75.10
3298;DHT22;1661;53.572;10.174;2022-12-18T15:13:57;-1.10;75.00
3298;DHT22;1661;53.572;10.174;2022-12-18T15:16:24;-1.20;74.80
3298;DHT22;1661;53.572;10.174;2022-12-18T15:18:52;-1.20;74.70
3298;DHT22;1661;53.572;10.174;2022-12-18T15:21:20;-1.20;74.80
3298;DHT22;1661;53.572;10.174;2022-12-18T15:23:50;-1.20;74.90
3298;DHT22;1661;53.572;10.174;2022-12-18T15:26:20;-1.20;74.80
3298;DHT22;1661;53.572;10.174;2022-12-18T15:28:51;-1.20;74.90
3298;DHT22;1661;53.572;10.174;2022-12-18T15:31:29;-1.30;74.90
3298;DHT22;1661;53.572;10.174;2022-12-18T15:34:05;-1.40;75.20
3298;DHT22;1661;53.572;10.174;2022-12-18T15:36:36;-1.40;75.50
3298;DHT22;1661;53.572;10.174;2022-12-18T15:39:04;-1.40;75.60
3298;DHT22;1661;53.572;10.174;2022-12-18T15:41:32;-1.40;75.60
3298;DHT22;1661;53.572;10.174;2022-12-18T15:44:21;-1.50;75.50
3298;DHT22;1661;53.572;10.174;2022-12-18T15:46:47;-1.60;76.30
3298;DHT22;1661;53.572;10.174;2022-12-18T15:49:14;-1.70;76.40
3298;DHT22;1661;53.572;10.174;2022-12-18T15:51:41;-1.60;76.70
3298;DHT22;1661;53.572;10.174;2022-12-18T15:54:11;-1.80;76.90
3298;DHT22;1661;53.572;10.174;2022-12-18T15:56:41;-1.80;77.10
3298;DHT22;1661;53.572;10.174;2022-12-18T15:59:26;-1.80;77.40
3298;DHT22;1661;53.572;10.174;2022-12-18T16:01:55;-1.80;77.50
3298;DHT22;1661;53.572;10.174;2022-12-18T16:04:23;-1.80;77.70
3298;DHT22;1661;53.572;10.174;2022-12-18T16:06:51;-1.90;77.80
3298;DHT22;1661;53.572;10.174;2022-12-18T16:09:18;-1.90;77.90